Time;durP1;ratioP1;P1;durP2;ratioP2;P2;SDS_P1;SDS_P2;PMS_P1;PMS_P2;Temp;Humidity;BMP_temperature;BMP_pressure;BME280_temperature;BME280_humidity;BME280_pressure;Samples;Min_cycle;Max_cycle;Signal;HPM_P1;HPM_P2
2023/03/18 00:02:06;;;;;;;;;;;;;;;;;;4922027;29;19970;-89
2023/03/18 00:04:32;;;;;;;;;;;;;;;;;;4937702;29;19927;-88
2023/03/18 00:06:58;;;;;;;;;;;;;;;;;;4921609;29;19922;-88
2023/03/18 00:09:24;;;;;;;;;;;;;;;;;;4921613;29;19923;-88
2023/03/18 00:11:51;;;;;;;;;;;;;;;;;;4937323;29;20382;-88
2023/03/18 00:14:18;;;;;;;;;;;;;;;;;;4937530;29;19923;-88
2023/03/18 00:16:44;;;;;;;;;;;;;;;;;;4937310;29;19929;-88
2023/03/18 00:19:10;;;;;;;;;;;;;;;;;;4921521;29;19922;-87
2023/03/18 00:21:36;;;;;;;;;;;;;;;;;;4937484;29;20397;-88
2023/03/18 00:24:02;;;;;;;;;;;;;;;;;;4937267;29;19933;-88
2023/03/18 00:26:28;;;;;;;;;;;;;;;;;;4921505;29;19922;-88
2023/03/18 00:28:54;;;;;;;;;;;;;;;;;;4921476;29;19922;-88
2023/03/18 00:31:21;;;;;;;;;;;;;;;;;;4921378;29;20017;-88
2023/03/18 00:33:49;;;;;;;;;;;;;;;;;;4921368;29;20390;-89
2023/03/18 00:36:15;;;;;;;;;;;;;;;;;;4936973;29;19930;-88
2023/03/18 00:38:41;;;;;;;;;;;;;;;;;;4937106;29;19927;-89
2023/03/18 00:41:10;;;;;;;;;;;;;;;;;;4921413;29;20016;-89
2023/03/18 00:43:44;;;;;;;;;;;;;;;;;;4921405;29;19973;-89
2023/03/18 00:46:10;;;;;;;;;;;;;;;;;;4921400;29;19923;-87
2023/03/18 00:48:37;;;;;;;;;;;;;;;;;;4921744;29;19973;-89
2023/03/18 00:51:03;;;;;;;;;;;;;;;;;;4921305;29;19927;-88
2023/03/18 00:53:29;;;;;;;;;;;;;;;;;;4937090;29;20005;-89
2023/03/18 00:55:55;;;;;;;;;;;;;;;;;;4937017;29;20376;-89
2023/03/18 00:58:21;;;;;;;;;;;;;;;;;;4921201;29;20005;-89
2023/03/18 01:00:47;;;;;;;;;;;;;;;;;;4921335;29;19923;-88
2023/03/18 01:03:13;;;;;;;;;;;;;;;;;;4921432;29;19922;-88
2023/03/18 01:05:39;;;;;;;;;;;;;;;;;;4937082;29;19926;-90
2023/03/18 01:08:05;;;;;;;;;;;;;;;;;;4921270;29;20388;-90
2023/03/18 01:10:34;;;;;;;;;;;;;;;;;;4921219;29;20059;-90
2023/03/18 01:13:00;;;;;;;;;;;;;;;;;;4921117;29;19931;-90
2023/03/18 01:15:26;;;;;;;;;;;;;;;;;;4920897;29;19927;-90
2023/03/18 01:17:55;;;;;;;;;;;;;;;;;;4921281;29;20297;-90
2023/03/18 01:20:22;;;;;;;;;;;;;;;;;;4921604;29;19926;-90
2023/03/18 01:22:49;;;;;;;;;;;;;;;;;;4921322;29;19930;-90
2023/03/18 01:25:15;;;;;;;;;;;;;;;;;;4921120;29;19974;-90
2023/03/18 01:27:41;;;;;;;;;;;;;;;;;;4921986;29;19929;-89
2023/03/18 01:30:08;;;;;;;;;;;;;;;;;;4940416;29;20433;-90
2023/03/18 01:32:33;;;;;;;;;;;;;;;;;;4924536;29;19923;-89
2023/03/18 01:34:59;;;;;;;;;;;;;;;;;;4924514;28;19926;-88
2023/03/18 01:37:25;;;;;;;;;;;;;;;;;;4956229;29;20354;-89
2023/03/18 01:39:52;;;;;;;;;;;;;;;;;;4924261;29;19922;-89
2023/03/18 01:42:19;;;;;;;;;;;;;;;;;;4924283;29;19923;-88
2023/03/18 01:44:48;;;;;;;;;;;;;;;;;;4924507;29;19922;-88
2023/03/18 01:47:16;;;;;;;;;;;;;;;;;;4940029;29;19922;-88
2023/03/18 01:49:42;;;;;;;;;;;;;;;;;;4940383;29;19953;-89
2023/03/18 01:52:08;;;;;;;;;;;;;;;;;;4924110;29;19927;-88
2023/03/18 01:54:33;;;;;;;;;;;;;;;;;;4940287;29;19922;-88
2023/03/18 01:57:00;;;;;;;;;;;;;;;;;;4940086;29;19923;-88
2023/03/18 01:59:27;;;;;;;;;;;;;;;;;;4924046;29;19929;-89
2023/03/18 02:01:53;;;;;;;;;;;;;;;;;;4923893;29;19922;-89
2023/03/18 02:04:20;;;;;;;;;;;;;;;;;;4939783;29;20404;-88
2023/03/18 02:06:46;;;;;;;;;;;;;;;;;;4923831;29;19922;-88
2023/03/18 02:09:12;;;;;;;;;;;;;;;;;;4923915;29;20400;-88
2023/03/18 02:11:40;;;;;;;;;;;;;;;;;;4924372;29;20291;-89
2023/03/18 02:14:06;;;;;;;;;;;;;;;;;;4923660;29;20017;-88
2023/03/18 02:16:33;;;;;;;;;;;;;;;;;;4923645;29;19933;-88
2023/03/18 02:18:59;;;;;;;;;;;;;;;;;;4923894;29;19945;-89
2023/03/18 02:21:25;;;;;;;;;;;;;;;;;;4923827;29;19923;-89
2023/03/18 02:23:51;;;;;;;;;;;;;;;;;;4939713;29;19986;-89
2023/03/18 02:26:17;;;;;;;;;;;;;;;;;;4939501;29;20385;-89
2023/03/18 02:28:43;;;;;;;;;;;;;;;;;;4923570;29;19973;-88
2023/03/18 02:31:09;;;;;;;;;;;;;;;;;;4923335;29;19937;-89
2023/03/18 02:33:35;;;;;;;;;;;;;;;;;;4923673;29;20211;-88
2023/03/18 02:36:01;;;;;;;;;;;;;;;;;;4939095;29;19934;-88
2023/03/18 02:38:28;;;;;;;;;;;;;;;;;;4923228;28;20366;-89
2023/03/18 02:40:53;;;;;;;;;;;;;;;;;;4938234;29;20416;-88
2023/03/18 02:43:19;;;;;;;;;;;;;;;;;;4939001;29;19923;-89
2023/03/18 02:45:45;;;;;;;;;;;;;;;;;;4923240;29;19929;-88
2023/03/18 02:48:11;;;;;;;;;;;;;;;;;;4923048;29;19923;-88
2023/03/18 02:50:38;;;;;;;;;;;;;;;;;;4923253;29;19932;-88
2023/03/18 02:53:04;;;;;;;;;;;;;;;;;;4939103;29;20381;-89
2023/03/18 02:55:30;;;;;;;;;;;;;;;;;;4922911;29;19970;-88
2023/03/18 02:57:56;;;;;;;;;;;;;;;;;;4938831;29;19972;-88
2023/03/18 03:00:22;;;;;;;;;;;;;;;;;;4938981;29;19977;-88
2023/03/18 03:02:48;;;;;;;;;;;;;;;;;;4939023;29;20382;-87
2023/03/18 03:05:14;;;;;;;;;;;;;;;;;;4939083;29;20420;-89
2023/03/18 03:07:40;;;;;;;;;;;;;;;;;;4922818;29;19938;-88
2023/03/18 03:10:06;;;;;;;;;;;;;;;;;;4938515;29;19974;-89
2023/03/18 03:12:32;;;;;;;;;;;;;;;;;;4938515;29;19926;-88
2023/03/18 03:14:58;;;;;;;;;;;;;;;;;;4922467;29;19929;-88
2023/03/18 03:17:24;;;;;;;;;;;;;;;;;;4922614;29;19950;-88
2023/03/18 03:19:50;;;;;;;;;;;;;;;;;;4938118;29;19938;-88
2023/03/18 03:22:17;;;;;;;;;;;;;;;;;;4922688;29;19926;-88
2023/03/18 03:24:43;;;;;;;;;;;;;;;;;;4922547;29;19970;-88
2023/03/18 03:27:09;;;;;;;;;;;;;;;;;;4922286;29;20024;-88
2023/03/18 03:29:35;;;;;;;;;;;;;;;;;;4922338;29;20025;-88
2023/03/18 03:32:01;;;;;;;;;;;;;;;;;;4938399;29;19958;-88
2023/03/18 03:34:27;;;;;;;;;;;;;;;;;;4922354;29;19965;-88
2023/03/18 03:36:53;;;;;;;;;;;;;;;;;;4921998;29;19927;-88
2023/03/18 03:39:19;;;;;;;;;;;;;;;;;;4922361;29;19926;-88
2023/03/18 03:41:45;;;;;;;;;;;;;;;;;;4937994;29;20337;-88
2023/03/18 03:44:11;;;;;;;;;;;;;;;;;;4922101;29;19945;-88
2023/03/18 03:46:37;;;;;;;;;;;;;;;;;;4937852;29;19923;-88
2023/03/18 03:49:03;;;;;;;;;;;;;;;;;;4921881;29;19974;-88
2023/03/18 03:51:29;;;;;;;;;;;;;;;;;;4921644;29;20393;-88
2023/03/18 03:53:56;;;;;;;;;;;;;;;;;;4937813;29;19969;-88
2023/03/18 03:56:22;;;;;;;;;;;;;;;;;;4921812;29;20403;-88
2023/03/18 03:58:48;;;;;;;;;;;;;;;;;;4938063;29;19923;-88
2023/03/18 04:01:14;;;;;;;;;;;;;;;;;;4921751;29;19970;-89
2023/03/18 04:03:40;;;;;;;;;;;;;;;;;;4921729;29;20008;-88
2023/03/18 04:06:06;;;;;;;;;;;;;;;;;;4937586;29;19973;-88
2023/03/18 04:08:32;;;;;;;;;;;;;;;;;;4937592;29;19934;-88
2023/03/18 04:10:58;;;;;;;;;;;;;;;;;;4921397;29;19927;-88
2023/03/18 04:13:24;;;;;;;;;;;;;;;;;;4921686;29;19930;-87
2023/03/18 04:15:50;;;;;;;;;;;;;;;;;;4921717;29;19972;-88
2023/03/18 04:18:16;;;;;;;;;;;;;;;;;;4921688;29;19929;-88
2023/03/18 04:20:43;;;;;;;;;;;;;;;;;;4921553;29;19926;-89
2023/03/18 04:23:09;;;;;;;;;;;;;;;;;;4921577;29;19926;-89
2023/03/18 04:25:35;;;;;;;;;;;;;;;;;;4937275;29;19929;-90
2023/03/18 04:28:01;;;;;;;;;;;;;;;;;;4921430;29;20370;-89
2023/03/18 04:30:27;;;;;;;;;;;;;;;;;;4921683;29;20270;-89
2023/03/18 04:32:53;;;;;;;;;;;;;;;;;;4921745;29;19922;-89
2023/03/18 04:35:20;;;;;;;;;;;;;;;;;;4953301;28;19981;-89
2023/03/18 04:37:45;;;;;;;;;;;;;;;;;;4921439;29;19922;-89
2023/03/18 04:40:11;;;;;;;;;;;;;;;;;;4921166;29;19969;-89
2023/03/18 04:42:37;;;;;;;;;;;;;;;;;;4921573;29;19973;-89
2023/03/18 04:45:04;;;;;;;;;;;;;;;;;;4921210;29;19933;-89
2023/03/18 04:47:31;;;;;;;;;;;;;;;;;;4921533;29;19923;-89
2023/03/18 04:49:57;;;;;;;;;;;;;;;;;;4937102;29;19922;-88
2023/03/18 04:52:23;;;;;;;;;;;;;;;;;;4921326;29;19928;-88
2023/03/18 04:54:49;;;;;;;;;;;;;;;;;;4921083;29;19929;-88
2023/03/18 04:57:15;;;;;;;;;;;;;;;;;;4921206;29;20377;-89
2023/03/18 04:59:41;;;;;;;;;;;;;;;;;;4921188;29;20370;-89
2023/03/18 05:02:07;;;;;;;;;;;;;;;;;;4921276;29;19929;-89
2023/03/18 05:04:33;;;;;;;;;;;;;;;;;;4924684;29;19922;-89
2023/03/18 05:06:59;;;;;;;;;;;;;;;;;;4940782;29;20377;-89
2023/03/18 05:09:26;;;;;;;;;;;;;;;;;;4940592;29;19923;-90
2023/03/18 05:11:52;;;;;;;;;;;;;;;;;;4925228;29;20240;-89
2023/03/18 05:14:17;;;;;;;;;;;;;;;;;;4924857;29;19977;-89
2023/03/18 05:16:44;;;;;;;;;;;;;;;;;;4924714;29;19977;-89
2023/03/18 05:19:10;;;;;;;;;;;;;;;;;;4924695;29;19923;-89
2023/03/18 05:21:36;;;;;;;;;;;;;;;;;;4924811;29;20338;-89
2023/03/18 05:24:02;;;;;;;;;;;;;;;;;;4924585;29;19985;-89
2023/03/18 05:26:28;;;;;;;;;;;;;;;;;;4924624;29;19922;-88
2023/03/18 05:28:54;;;;;;;;;;;;;;;;;;4924980;29;19922;-89
2023/03/18 05:31:19;;;;;;;;;;;;;;;;;;4924364;29;19926;-89
2023/03/18 05:33:46;;;;;;;;;;;;;;;;;;4924518;29;19929;-89
2023/03/18 05:36:13;;;;;;;;;;;;;;;;;;4939985;29;19982;-89
2023/03/18 05:38:39;;;;;;;;;;;;;;;;;;4924267;29;19933;-89
2023/03/18 05:41:06;;;;;;;;;;;;;;;;;;4924695;29;20013;-89
2023/03/18 05:43:31;;;;;;;;;;;;;;;;;;4940260;29;19977;-89
2023/03/18 05:45:57;;;;;;;;;;;;;;;;;;4940239;29;19926;-88
2023/03/18 05:48:25;;;;;;;;;;;;;;;;;;4940484;29;20460;-89
2023/03/18 05:50:51;;;;;;;;;;;;;;;;;;4939897;29;19999;-89
2023/03/18 05:53:17;;;;;;;;;;;;;;;;;;4923930;29;19956;-89
2023/03/18 05:55:43;;;;;;;;;;;;;;;;;;4939845;29;20017;-89
2023/03/18 05:58:09;;;;;;;;;;;;;;;;;;4923980;29;19922;-89
2023/03/18 06:00:36;;;;;;;;;;;;;;;;;;4923677;29;19922;-89
2023/03/18 06:03:02;;;;;;;;;;;;;;;;;;4924263;29;20037;-88
2023/03/18 06:05:28;;;;;;;;;;;;;;;;;;4924164;29;19977;-90
2023/03/18 06:07:54;;;;;;;;;;;;;;;;;;4924065;29;19923;-89
2023/03/18 06:10:21;;;;;;;;;;;;;;;;;;4923696;29;20073;-89
2023/03/18 06:12:48;;;;;;;;;;;;;;;;;;4923841;29;20017;-89
2023/03/18 06:15:14;;;;;;;;;;;;;;;;;;4939311;29;19922;-89
2023/03/18 06:17:40;;;;;;;;;;;;;;;;;;4939953;29;19930;-89
2023/03/18 06:20:07;;;;;;;;;;;;;;;;;;4939580;29;19927;-90
2023/03/18 06:22:33;;;;;;;;;;;;;;;;;;4923592;29;20465;-89
2023/03/18 06:24:59;;;;;;;;;;;;;;;;;;4923576;29;19966;-89
2023/03/18 06:27:25;;;;;;;;;;;;;;;;;;4939835;29;19922;-90
2023/03/18 06:29:51;;;;;;;;;;;;;;;;;;4939377;29;20021;-90
2023/03/18 06:32:17;;;;;;;;;;;;;;;;;;4923281;29;20389;-89
2023/03/18 06:34:44;;;;;;;;;;;;;;;;;;4923225;29;20366;-89
2023/03/18 06:37:10;;;;;;;;;;;;;;;;;;4923363;29;19927;-89
2023/03/18 06:39:36;;;;;;;;;;;;;;;;;;4923262;29;19923;-89
2023/03/18 06:42:05;;;;;;;;;;;;;;;;;;4923577;29;19933;-89
2023/03/18 06:44:31;;;;;;;;;;;;;;;;;;4923434;29;20106;-88
2023/03/18 06:46:56;;;;;;;;;;;;;;;;;;4939223;29;20457;-89
2023/03/18 06:49:22;;;;;;;;;;;;;;;;;;4922977;29;19977;-88
2023/03/18 06:51:48;;;;;;;;;;;;;;;;;;4923013;29;20021;-89
2023/03/18 06:54:15;;;;;;;;;;;;;;;;;;4923311;29;19922;-89
2023/03/18 06:56:42;;;;;;;;;;;;;;;;;;4923015;29;19929;-88
2023/03/18 06:59:08;;;;;;;;;;;;;;;;;;4923088;29;19923;-89
2023/03/18 07:01:34;;;;;;;;;;;;;;;;;;4938844;29;19975;-88
2023/03/18 07:04:01;;;;;;;;;;;;;;;;;;4939077;29;19952;-89
2023/03/18 07:06:28;;;;;;;;;;;;;;;;;;4938911;29;20378;-88
2023/03/18 07:08:54;;;;;;;;;;;;;;;;;;4923249;29;19945;-89
2023/03/18 07:11:20;;;;;;;;;;;;;;;;;;4922776;29;19956;-88
2023/03/18 07:13:46;;;;;;;;;;;;;;;;;;4922729;29;19923;-89
2023/03/18 07:16:12;;;;;;;;;;;;;;;;;;4922512;29;20290;-88
2023/03/18 07:18:39;;;;;;;;;;;;;;;;;;4938303;29;19935;-89
2023/03/18 07:21:05;;;;;;;;;;;;;;;;;;4938724;29;19922;-89
2023/03/18 07:23:31;;;;;;;;;;;;;;;;;;4922690;29;20281;-89
2023/03/18 07:25:57;;;;;;;;;;;;;;;;;;4921751;29;20017;-89
2023/03/18 07:28:23;;;;;;;;;;;;;;;;;;4922549;29;19949;-89
2023/03/18 07:30:50;;;;;;;;;;;;;;;;;;4922189;29;19926;-89
2023/03/18 07:33:16;;;;;;;;;;;;;;;;;;4922324;29;19926;-89
2023/03/18 07:35:42;;;;;;;;;;;;;;;;;;4922114;29;20251;-88
2023/03/18 07:38:08;;;;;;;;;;;;;;;;;;4922162;29;19965;-88
2023/03/18 07:40:34;;;;;;;;;;;;;;;;;;4922285;29;19977;-87
2023/03/18 07:43:00;;;;;;;;;;;;;;;;;;4922497;29;19977;-89
2023/03/18 07:45:27;;;;;;;;;;;;;;;;;;4921949;29;19922;-89
2023/03/18 07:47:53;;;;;;;;;;;;;;;;;;4922120;29;19923;-88
2023/03/18 07:50:19;;;;;;;;;;;;;;;;;;4922034;29;19993;-88
2023/03/18 07:52:45;;;;;;;;;;;;;;;;;;4922124;29;20018;-89
2023/03/18 07:55:11;;;;;;;;;;;;;;;;;;4921949;29;19973;-88
2023/03/18 07:57:36;;;;;;;;;;;;;;;;;;4921917;29;19981;-88
2023/03/18 08:00:03;;;;;;;;;;;;;;;;;;4937807;29;19977;-89
2023/03/18 08:02:30;;;;;;;;;;;;;;;;;;4922239;29;20013;-89
2023/03/18 08:04:58;;;;;;;;;;;;;;;;;;4921787;29;19929;-89
2023/03/18 08:07:24;;;;;;;;;;;;;;;;;;4921851;29;19922;-88
2023/03/18 08:09:53;;;;;;;;;;;;;;;;;;4938094;29;19923;-90
2023/03/18 08:12:19;;;;;;;;;;;;;;;;;;4921702;29;19927;-91
2023/03/18 08:14:44;;;;;;;;;;;;;;;;;;4921623;29;19977;-89
2023/03/18 08:17:10;;;;;;;;;;;;;;;;;;4922020;29;20085;-88
2023/03/18 08:19:36;;;;;;;;;;;;;;;;;;4937747;29;20008;-89
2023/03/18 08:22:02;;;;;;;;;;;;;;;;;;4921692;29;19926;-88
2023/03/18 08:24:28;;;;;;;;;;;;;;;;;;4921511;29;19945;-88
2023/03/18 08:26:54;;;;;;;;;;;;;;;;;;4921439;29;20393;-87
2023/03/18 08:29:20;;;;;;;;;;;;;;;;;;4919779;29;19932;-89
2023/03/18 08:31:46;;;;;;;;;;;;;;;;;;4921409;29;19926;-88
2023/03/18 08:34:13;;;;;;;;;;;;;;;;;;4923071;28;19977;-88
2023/03/18 08:36:39;;;;;;;;;;;;;;;;;;4941048;28;19997;-88
2023/03/18 08:39:05;;;;;;;;;;;;;;;;;;4937767;29;20302;-88
2023/03/18 08:41:31;;;;;;;;;;;;;;;;;;4921106;29;19931;-88
2023/03/18 08:43:57;;;;;;;;;;;;;;;;;;4937151;29;19949;-88
2023/03/18 08:46:23;;;;;;;;;;;;;;;;;;4929816;28;20393;-89
2023/03/18 08:48:50;;;;;;;;;;;;;;;;;;4924910;29;19922;-89
2023/03/18 08:51:16;;;;;;;;;;;;;;;;;;4944926;28;19926;-89
2023/03/18 08:53:42;;;;;;;;;;;;;;;;;;4951777;28;20300;-90
2023/03/18 08:56:08;;;;;;;;;;;;;;;;;;4952168;28;19932;-89
2023/03/18 08:58:35;;;;;;;;;;;;;;;;;;4941294;28;19923;-89
2023/03/18 09:01:02;;;;;;;;;;;;;;;;;;4940717;28;19922;-88
2023/03/18 09:03:29;;;;;;;;;;;;;;;;;;4940475;28;20151;-88
2023/03/18 09:05:55;;;;;;;;;;;;;;;;;;4956504;28;20273;-89
2023/03/18 09:08:21;;;;;;;;;;;;;;;;;;4940137;28;20377;-89
2023/03/18 09:10:46;;;;;;;;;;;;;;;;;;4956057;28;19926;-89
2023/03/18 09:13:12;;;;;;;;;;;;;;;;;;4940886;28;19926;-91
2023/03/18 09:15:39;;;;;;;;;;;;;;;;;;4957432;28;19973;-90
2023/03/18 09:18:05;;;;;;;;;;;;;;;;;;4956272;28;19929;-89
2023/03/18 09:20:32;;;;;;;;;;;;;;;;;;4956016;28;19922;-89
2023/03/18 09:22:58;;;;;;;;;;;;;;;;;;4940131;28;19922;-90
2023/03/18 09:25:24;;;;;;;;;;;;;;;;;;4955973;28;20291;-90
2023/03/18 09:27:50;;;;;;;;;;;;;;;;;;4940177;28;20021;-88
2023/03/18 09:30:16;;;;;;;;;;;;;;;;;;4955996;28;19984;-88
2023/03/18 09:32:42;;;;;;;;;;;;;;;;;;4955902;28;19930;-88
2023/03/18 09:35:08;;;;;;;;;;;;;;;;;;4939896;28;19938;-88
2023/03/18 09:37:34;;;;;;;;;;;;;;;;;;4939841;28;20358;-89
2023/03/18 09:40:00;;;;;;;;;;;;;;;;;;4939915;28;19977;-89
2023/03/18 09:42:26;;;;;;;;;;;;;;;;;;4956074;28;19999;-89
2023/03/18 09:44:52;;;;;;;;;;;;;;;;;;4955724;28;20301;-88
2023/03/18 09:47:19;;;;;;;;;;;;;;;;;;4955777;28;20370;-89
2023/03/18 09:49:45;;;;;;;;;;;;;;;;;;4941870;28;19973;-89
2023/03/18 09:52:12;;;;;;;;;;;;;;;;;;4959122;28;19926;-89
2023/03/18 09:54:39;;;;;;;;;;;;;;;;;;4943547;28;19961;-92
2023/03/18 09:57:05;;;;;;;;;;;;;;;;;;4943370;28;20024;-89
2023/03/18 09:59:31;;;;;;;;;;;;;;;;;;4942995;28;19957;-89
2023/03/18 10:01:58;;;;;;;;;;;;;;;;;;4942896;28;19922;-89
2023/03/18 10:04:24;;;;;;;;;;;;;;;;;;4942998;28;20002;-90
2023/03/18 10:06:51;;;;;;;;;;;;;;;;;;4943193;28;20016;-90
2023/03/18 10:09:17;;;;;;;;;;;;;;;;;;4942997;28;19922;-89
2023/03/18 10:11:43;;;;;;;;;;;;;;;;;;4958912;28;19956;-93
2023/03/18 10:14:08;;;;;;;;;;;;;;;;;;4943538;28;20292;-89
2023/03/18 10:16:34;;;;;;;;;;;;;;;;;;4924966;29;19922;-89
2023/03/18 10:19:00;;;;;;;;;;;;;;;;;;4939544;29;20279;-90
2023/03/18 10:21:26;;;;;;;;;;;;;;;;;;4939563;29;19922;-89
2023/03/18 10:23:52;;;;;;;;;;;;;;;;;;4923684;29;19977;-90
2023/03/18 10:26:18;;;;;;;;;;;;;;;;;;4924036;29;19922;-89
2023/03/18 10:28:44;;;;;;;;;;;;;;;;;;4923616;29;19930;-90
2023/03/18 10:31:10;;;;;;;;;;;;;;;;;;4923620;29;19978;-90
2023/03/18 10:33:36;;;;;;;;;;;;;;;;;;4923407;29;19989;-89
2023/03/18 10:36:02;;;;;;;;;;;;;;;;;;4923483;29;19930;-89
2023/03/18 10:38:28;;;;;;;;;;;;;;;;;;4923106;29;20385;-89
2023/03/18 10:40:54;;;;;;;;;;;;;;;;;;4923396;29;19929;-89
2023/03/18 10:43:20;;;;;;;;;;;;;;;;;;4923411;29;19923;-89
2023/03/18 10:45:46;;;;;;;;;;;;;;;;;;4939003;29;19923;-89
2023/03/18 10:48:12;;;;;;;;;;;;;;;;;;4923367;29;19926;-89
2023/03/18 10:50:38;;;;;;;;;;;;;;;;;;4939458;29;19942;-90
2023/03/18 10:53:04;;;;;;;;;;;;;;;;;;4923043;29;19922;-89
2023/03/18 10:55:30;;;;;;;;;;;;;;;;;;4921022;29;19922;-88
2023/03/18 10:57:56;;;;;;;;;;;;;;;;;;4923887;29;20057;-89
2023/03/18 11:00:22;;;;;;;;;;;;;;;;;;4937739;29;19933;-89
2023/03/18 11:02:48;;;;;;;;;;;;;;;;;;4922914;29;19965;-88
2023/03/18 11:05:14;;;;;;;;;;;;;;;;;;4934114;28;20016;-87
2023/03/18 11:07:40;;;;;;;;;;;;;;;;;;4958038;28;19977;-87
2023/03/18 11:10:06;;;;;;;;;;;;;;;;;;4957677;28;20381;-87
2023/03/18 11:12:33;;;;;;;;;;;;;;;;;;4941657;28;20408;-87
2023/03/18 11:14:59;;;;;;;;;;;;;;;;;;4941961;28;19992;-87
2023/03/18 11:17:26;;;;;;;;;;;;;;;;;;4957591;28;20382;-87
2023/03/18 11:19:52;;;;;;;;;;;;;;;;;;4957574;28;19973;-89
2023/03/18 11:22:18;;;;;;;;;;;;;;;;;;4941198;28;19962;-90
2023/03/18 11:24:44;;;;;;;;;;;;;;;;;;4941261;28;19929;-90
2023/03/18 11:27:10;;;;;;;;;;;;;;;;;;4941945;28;19929;-90
2023/03/18 11:29:37;;;;;;;;;;;;;;;;;;4941644;28;19944;-90
2023/03/18 11:32:03;;;;;;;;;;;;;;;;;;4941250;28;20423;-90
2023/03/18 11:34:29;;;;;;;;;;;;;;;;;;4941568;28;19922;-89
2023/03/18 11:36:57;;;;;;;;;;;;;;;;;;4922816;29;19927;-90
2023/03/18 11:39:23;;;;;;;;;;;;;;;;;;4922265;29;19929;-89
2023/03/18 11:41:49;;;;;;;;;;;;;;;;;;4938013;29;19926;-90
2023/03/18 11:44:16;;;;;;;;;;;;;;;;;;4922533;29;20015;-90
2023/03/18 11:46:42;;;;;;;;;;;;;;;;;;4922437;29;19976;-89
2023/03/18 11:49:08;;;;;;;;;;;;;;;;;;4922196;29;19923;-92
2023/03/18 11:51:34;;;;;;;;;;;;;;;;;;4921807;29;20416;-90
2023/03/18 11:54:00;;;;;;;;;;;;;;;;;;4921938;29;19944;-89
2023/03/18 11:56:27;;;;;;;;;;;;;;;;;;4921969;29;20370;-94
2023/03/18 11:58:53;;;;;;;;;;;;;;;;;;4923109;29;19929;-94
2023/03/18 12:01:19;;;;;;;;;;;;;;;;;;4921840;29;20386;-91
2023/03/18 12:03:46;;;;;;;;;;;;;;;;;;4921788;29;19922;-90
2023/03/18 12:06:13;;;;;;;;;;;;;;;;;;4938054;29;19930;-90
2023/03/18 12:08:40;;;;;;;;;;;;;;;;;;4925138;28;19926;-90
2023/03/18 12:11:06;;;;;;;;;;;;;;;;;;4941160;28;19934;-90
2023/03/18 12:13:32;;;;;;;;;;;;;;;;;;4940937;28;19926;-90
2023/03/18 12:15:58;;;;;;;;;;;;;;;;;;4940928;28;19976;-90
2023/03/18 12:18:24;;;;;;;;;;;;;;;;;;4955844;28;19922;-90
2023/03/18 12:20:51;;;;;;;;;;;;;;;;;;4940784;28;19922;-90
2023/03/18 12:23:16;;;;;;;;;;;;;;;;;;4940484;28;19929;-90
2023/03/18 12:25:42;;;;;;;;;;;;;;;;;;4940599;28;19926;-89
2023/03/18 12:28:09;;;;;;;;;;;;;;;;;;4940582;28;19929;-89
2023/03/18 12:30:35;;;;;;;;;;;;;;;;;;4940549;28;19977;-88
2023/03/18 12:33:03;;;;;;;;;;;;;;;;;;4956338;28;19926;-90
2023/03/18 12:35:28;;;;;;;;;;;;;;;;;;4940208;28;20026;-88
2023/03/18 12:37:54;;;;;;;;;;;;;;;;;;4940723;28;19977;-87
2023/03/18 12:40:20;;;;;;;;;;;;;;;;;;4956611;28;19928;-89
2023/03/18 12:42:46;;;;;;;;;;;;;;;;;;4956305;28;19922;-89
2023/03/18 12:45:13;;;;;;;;;;;;;;;;;;4956346;28;19981;-88
2023/03/18 12:47:39;;;;;;;;;;;;;;;;;;4940118;28;20033;-87
2023/03/18 12:50:05;;;;;;;;;;;;;;;;;;4973728;28;19922;-88
2023/03/18 12:52:31;;;;;;;;;;;;;;;;;;4940258;28;19934;-88
2023/03/18 12:54:57;;;;;;;;;;;;;;;;;;4956365;28;19969;-88
2023/03/18 12:57:22;;;;;;;;;;;;;;;;;;4956144;28;20389;-88
2023/03/18 12:59:48;;;;;;;;;;;;;;;;;;4956094;28;19922;-88
2023/03/18 13:02:14;;;;;;;;;;;;;;;;;;4956532;28;20292;-88
2023/03/18 13:04:40;;;;;;;;;;;;;;;;;;4956014;28;19922;-90
2023/03/18 13:07:06;;;;;;;;;;;;;;;;;;4950229;28;19974;-90
2023/03/18 13:09:33;;;;;;;;;;;;;;;;;;4937144;29;19949;-89
2023/03/18 13:12:00;;;;;;;;;;;;;;;;;;4921299;29;19930;-89
2023/03/18 13:14:27;;;;;;;;;;;;;;;;;;4921148;29;19929;-88
2023/03/18 13:16:53;;;;;;;;;;;;;;;;;;4920862;29;19922;-89
2023/03/18 13:19:19;;;;;;;;;;;;;;;;;;4936863;29;19945;-90
2023/03/18 13:21:45;;;;;;;;;;;;;;;;;;4937304;29;19922;-89
2023/03/18 13:24:11;;;;;;;;;;;;;;;;;;4938435;29;19937;-89
2023/03/18 13:26:38;;;;;;;;;;;;;;;;;;4940714;29;19922;-88
2023/03/18 13:29:04;;;;;;;;;;;;;;;;;;4924868;29;20325;-88
2023/03/18 13:31:30;;;;;;;;;;;;;;;;;;4940211;29;19926;-87
2023/03/18 13:33:56;;;;;;;;;;;;;;;;;;4940314;29;20009;-87
2023/03/18 13:36:22;;;;;;;;;;;;;;;;;;4940356;29;20267;-87
2023/03/18 13:38:48;;;;;;;;;;;;;;;;;;4940267;29;20066;-87
2023/03/18 13:41:16;;;;;;;;;;;;;;;;;;4924683;29;19922;-89
2023/03/18 13:43:45;;;;;;;;;;;;;;;;;;4924436;29;20465;-88
2023/03/18 13:46:10;;;;;;;;;;;;;;;;;;4923901;29;19977;-88
2023/03/18 13:48:37;;;;;;;;;;;;;;;;;;4923956;29;20318;-89
2023/03/18 13:51:04;;;;;;;;;;;;;;;;;;4924056;29;20073;-89
2023/03/18 13:53:30;;;;;;;;;;;;;;;;;;4939861;29;19923;-88
2023/03/18 13:55:56;;;;;;;;;;;;;;;;;;4924090;29;19945;-89
2023/03/18 13:58:22;;;;;;;;;;;;;;;;;;4940292;29;19931;-89
2023/03/18 14:00:48;;;;;;;;;;;;;;;;;;4924522;29;19922;-88
2023/03/18 14:03:15;;;;;;;;;;;;;;;;;;4923910;29;20399;-91
2023/03/18 14:05:41;;;;;;;;;;;;;;;;;;4939992;29;19922;-90
2023/03/18 14:08:07;;;;;;;;;;;;;;;;;;4939773;29;19974;-91
2023/03/18 14:10:33;;;;;;;;;;;;;;;;;;4939665;29;19923;-90
2023/03/18 14:12:59;;;;;;;;;;;;;;;;;;4923845;29;19965;-90
2023/03/18 14:15:25;;;;;;;;;;;;;;;;;;4923977;29;19930;-90
2023/03/18 14:17:52;;;;;;;;;;;;;;;;;;4924214;29;19922;-91
2023/03/18 14:20:18;;;;;;;;;;;;;;;;;;4923674;29;19922;-89
2023/03/18 14:22:44;;;;;;;;;;;;;;;;;;4939742;29;19973;-88
2023/03/18 14:25:10;;;;;;;;;;;;;;;;;;4939662;29;20017;-89
2023/03/18 14:27:36;;;;;;;;;;;;;;;;;;4948171;29;19949;-90
2023/03/18 14:30:03;;;;;;;;;;;;;;;;;;4926453;29;19934;-89
2023/03/18 14:32:29;;;;;;;;;;;;;;;;;;4923521;29;19932;-90
2023/03/18 14:34:56;;;;;;;;;;;;;;;;;;4923081;28;20293;-88
2023/03/18 14:37:22;;;;;;;;;;;;;;;;;;4938821;29;19922;-89
2023/03/18 14:39:50;;;;;;;;;;;;;;;;;;4939125;29;20289;-88
2023/03/18 14:42:16;;;;;;;;;;;;;;;;;;4939045;29;19923;-88
2023/03/18 14:44:42;;;;;;;;;;;;;;;;;;4943216;29;19922;-89
2023/03/18 14:47:07;;;;;;;;;;;;;;;;;;4955721;29;19929;-89
2023/03/18 14:49:34;;;;;;;;;;;;;;;;;;4935233;29;19930;-90
2023/03/18 14:52:00;;;;;;;;;;;;;;;;;;4938866;29;20043;-93
2023/03/18 14:54:26;;;;;;;;;;;;;;;;;;4923219;29;19970;-91
2023/03/18 14:56:56;;;;;;;;;;;;;;;;;;4923203;29;19923;-89
2023/03/18 14:59:22;;;;;;;;;;;;;;;;;;4922916;29;19989;-89
2023/03/18 15:01:49;;;;;;;;;;;;;;;;;;4938944;29;19973;-88
2023/03/18 15:04:16;;;;;;;;;;;;;;;;;;4922761;29;19929;-88
2023/03/18 15:06:42;;;;;;;;;;;;;;;;;;4938301;29;20029;-87
2023/03/18 15:09:08;;;;;;;;;;;;;;;;;;4922593;29;19977;-90
2023/03/18 15:11:34;;;;;;;;;;;;;;;;;;4922306;29;19986;-88
2023/03/18 15:14:00;;;;;;;;;;;;;;;;;;4938659;29;19922;-89
2023/03/18 15:16:28;;;;;;;;;;;;;;;;;;4922519;29;20017;-89
2023/03/18 15:18:54;;;;;;;;;;;;;;;;;;4922563;29;20281;-87
2023/03/18 15:21:21;;;;;;;;;;;;;;;;;;4938832;29;19922;-87
2023/03/18 15:23:47;;;;;;;;;;;;;;;;;;4922374;29;19969;-87
2023/03/18 15:26:15;;;;;;;;;;;;;;;;;;4937993;29;19926;-87
2023/03/18 15:28:42;;;;;;;;;;;;;;;;;;4922359;29;20286;-89
2023/03/18 15:31:08;;;;;;;;;;;;;;;;;;4937908;29;19934;-87
2023/03/18 15:33:34;;;;;;;;;;;;;;;;;;4922192;29;19922;-87
2023/03/18 15:36:00;;;;;;;;;;;;;;;;;;4937673;29;19934;-89
2023/03/18 15:38:26;;;;;;;;;;;;;;;;;;4937816;29;20292;-88
2023/03/18 15:40:52;;;;;;;;;;;;;;;;;;4938380;29;20353;-87
2023/03/18 15:43:19;;;;;;;;;;;;;;;;;;4938035;29;19930;-88
2023/03/18 15:45:45;;;;;;;;;;;;;;;;;;4921839;28;19969;-90
2023/03/18 15:48:12;;;;;;;;;;;;;;;;;;4937843;29;19977;-95
2023/03/18 15:56:47;;;;;;;;;;;;;;;;;;5051850;23;20304;-95
2023/03/18 15:59:26;;;;;;;;;;;;;;;;;;4960678;28;20109;-95
2023/03/18 16:01:54;;;;;;;;;;;;;;;;;;4958831;28;19922;-94
2023/03/18 16:04:20;;;;;;;;;;;;;;;;;;4942867;28;19929;-94
2023/03/18 17:27:34;;;;;;;;;;;;;;;;;;4907967;29;19923;-96
2023/03/18 17:30:29;;;;;;;;;;;;;;;;;;4916738;29;19948;-95
2023/03/18 17:46:57;;;;;;;;;;;;;;;;;;5115503;23;19926;-96
2023/03/18 17:49:25;;;;;;;;;;;;;;;;;;4944782;28;20289;-96
2023/03/18 17:51:51;;;;;;;;;;;;;;;;;;4944796;28;19932;-96
2023/03/18 17:54:17;;;;;;;;;;;;;;;;;;4951522;28;19942;-95
2023/03/18 17:56:58;;;;;;;;;;;;;;;;;;4977596;28;20350;-94
2023/03/18 17:59:42;;;;;;;;;;;;;;;;;;4959811;28;19973;-94
2023/03/18 18:02:26;;;;;;;;;;;;;;;;;;4922407;28;19982;-94
2023/03/18 18:04:55;;;;;;;;;;;;;;;;;;4944372;28;20313;-96
2023/03/18 18:07:23;;;;;;;;;;;;;;;;;;4947566;28;19929;-96
2023/03/18 18:09:49;;;;;;;;;;;;;;;;;;4944526;28;19945;-96
2023/03/18 18:12:23;;;;;;;;;;;;;;;;;;4944390;28;19926;-96
2023/03/18 18:14:52;;;;;;;;;;;;;;;;;;4945287;28;19937;-96
2023/03/18 18:17:21;;;;;;;;;;;;;;;;;;4945914;28;20380;-95
2023/03/18 18:19:50;;;;;;;;;;;;;;;;;;4951390;28;19929;-94
2023/03/18 18:22:19;;;;;;;;;;;;;;;;;;4966144;28;19922;-96